createdAt,value
2017-08-08T00:00:26.151Z,931.68
2017-08-08T00:00:54.443Z,931.69
2017-08-08T00:01:22.631Z,931.67
2017-08-08T00:01:50.864Z,931.65
2017-08-08T00:02:19.135Z,931.68
2017-08-08T00:02:47.420Z,931.71
2017-08-08T00:03:15.595Z,931.71
2017-08-08T00:03:44.014Z,931.74
2017-08-08T00:04:12.195Z,931.7
2017-08-08T00:04:40.427Z,931.7
2017-08-08T00:05:08.744Z,931.74
2017-08-08T00:05:37.076Z,931.74
2017-08-08T00:06:05.301Z,931.71
2017-08-08T00:06:33.522Z,931.75
2017-08-08T00:07:01.701Z,931.76
2017-08-08T00:07:30.086Z,931.74
2017-08-08T00:07:59.215Z,931.74
2017-08-08T00:08:27.478Z,931.73
2017-08-08T00:08:55.872Z,931.75
2017-08-08T00:09:24.235Z,931.75
2017-08-08T00:09:52.407Z,931.77
2017-08-08T00:10:20.751Z,931.77
2017-08-08T00:10:48.873Z,931.75
2017-08-08T00:11:17.434Z,931.8
2017-08-08T00:11:45.796Z,931.81
2017-08-08T00:12:14.133Z,931.8
2017-08-08T00:12:42.432Z,931.77
2017-08-08T00:13:10.823Z,931.79
2017-08-08T00:13:39.110Z,931.76
2017-08-08T00:14:07.581Z,931.78
2017-08-08T00:14:35.887Z,931.8
2017-08-08T00:15:04.218Z,931.78
2017-08-08T00:15:32.627Z,931.78
2017-08-08T00:16:00.988Z,931.8
2017-08-08T00:16:29.504Z,931.8
2017-08-08T00:16:57.768Z,931.81
2017-08-08T00:17:26.085Z,931.81
2017-08-08T00:17:54.329Z,931.81
2017-08-08T00:18:22.660Z,931.82
2017-08-08T00:18:51.185Z,931.89
2017-08-08T00:19:19.605Z,931.81
2017-08-08T00:19:47.750Z,931.8
2017-08-08T00:20:16.040Z,931.81
2017-08-08T00:20:44.392Z,931.78
2017-08-08T00:21:12.749Z,931.76
2017-08-08T00:21:40.989Z,931.79
2017-08-08T00:22:09.233Z,931.81
2017-08-08T00:22:37.518Z,931.81
2017-08-08T00:23:05.813Z,931.81
2017-08-08T00:23:34.082Z,931.77
2017-08-08T00:24:02.520Z,931.75
2017-08-08T00:24:30.907Z,931.77
2017-08-08T00:24:59.162Z,931.75
2017-08-08T00:25:27.335Z,931.77
2017-08-08T00:25:55.728Z,931.8
2017-08-08T00:26:23.998Z,931.74
2017-08-08T00:26:52.356Z,931.73
2017-08-08T00:27:20.680Z,931.76
2017-08-08T00:27:49.090Z,931.72
2017-08-08T00:28:17.292Z,931.72
2017-08-08T00:28:45.569Z,931.69
2017-08-08T00:29:13.879Z,931.72
2017-08-08T00:29:42.134Z,931.67
2017-08-08T00:30:10.211Z,931.73
2017-08-08T00:30:38.512Z,931.74
2017-08-08T00:31:06.724Z,931.72
2017-08-08T00:31:35.059Z,931.74
2017-08-08T00:32:03.624Z,931.77
2017-08-08T00:32:31.948Z,931.73
2017-08-08T00:33:00.280Z,931.8
2017-08-08T00:33:28.622Z,931.75
2017-08-08T00:33:56.946Z,931.73
2017-08-08T00:34:25.399Z,931.74
2017-08-08T00:34:53.721Z,931.74
2017-08-08T00:35:21.977Z,931.76
2017-08-08T00:35:50.119Z,931.75
2017-08-08T00:36:18.266Z,931.72
2017-08-08T00:36:46.715Z,931.72
2017-08-08T00:37:15.177Z,931.73
2017-08-08T00:37:43.712Z,931.72
2017-08-08T00:38:12.076Z,931.72
2017-08-08T00:38:40.239Z,931.7
2017-08-08T00:39:08.451Z,931.7
2017-08-08T00:39:36.801Z,931.7
2017-08-08T00:40:05.001Z,931.73
2017-08-08T00:40:33.285Z,931.71
2017-08-08T00:41:01.321Z,931.7
2017-08-08T00:41:29.596Z,931.68
2017-08-08T00:41:58.138Z,931.72
2017-08-08T00:42:26.356Z,931.72
2017-08-08T00:42:54.801Z,931.68
2017-08-08T00:43:22.845Z,931.68
2017-08-08T00:43:51.122Z,931.68
2017-08-08T00:44:19.395Z,931.72
2017-08-08T00:44:47.504Z,931.71
2017-08-08T00:45:15.772Z,931.72
2017-08-08T00:45:44.115Z,931.75
2017-08-08T00:46:12.417Z,931.75
2017-08-08T00:46:40.697Z,931.76
2017-08-08T00:47:09.085Z,931.74
2017-08-08T00:47:37.420Z,931.75
2017-08-08T00:48:05.773Z,931.74
2017-08-08T00:48:34.038Z,931.75
2017-08-08T00:49:02.425Z,931.73
2017-08-08T00:49:30.890Z,931.69
2017-08-08T00:49:59.182Z,931.67
2017-08-08T00:50:27.576Z,931.71
2017-08-08T00:50:55.938Z,931.68
2017-08-08T00:51:24.260Z,931.68
2017-08-08T00:51:52.541Z,931.67
2017-08-08T00:52:20.762Z,931.67
2017-08-08T00:52:48.946Z,931.67
2017-08-08T00:53:17.244Z,931.68
2017-08-08T00:53:45.654Z,931.72
2017-08-08T00:54:14.046Z,931.72
2017-08-08T00:54:42.380Z,931.7
2017-08-08T00:55:10.591Z,931.73
2017-08-08T00:55:38.887Z,931.76
2017-08-08T00:56:06.876Z,931.75
2017-08-08T00:56:35.258Z,931.73
2017-08-08T00:57:03.620Z,931.73
2017-08-08T00:57:32.029Z,931.72
2017-08-08T00:58:00.237Z,931.73
2017-08-08T00:58:28.717Z,931.71
2017-08-08T00:58:57.082Z,931.66
2017-08-08T00:59:25.486Z,931.67
2017-08-08T00:59:53.760Z,931.68
2017-08-08T01:00:22.193Z,931.7
2017-08-08T01:00:50.558Z,931.74
2017-08-08T01:01:18.978Z,931.72
2017-08-08T01:01:47.397Z,931.75
2017-08-08T01:02:15.739Z,931.73
2017-08-08T01:02:44.087Z,931.77
2017-08-08T01:03:12.328Z,931.77
2017-08-08T01:03:40.690Z,931.78
2017-08-08T01:04:08.999Z,931.77
2017-08-08T01:04:37.481Z,931.76
2017-08-08T01:05:05.757Z,931.73
2017-08-08T01:05:34.012Z,931.74
2017-08-08T01:06:02.348Z,931.8
2017-08-08T01:06:30.600Z,931.73
2017-08-08T01:06:58.976Z,931.73
2017-08-08T01:07:27.326Z,931.75
2017-08-08T01:07:55.418Z,931.74
2017-08-08T01:08:23.806Z,931.76
2017-08-08T01:08:52.122Z,931.8
2017-08-08T01:09:20.575Z,931.8
2017-08-08T01:09:49.017Z,931.81
2017-08-08T01:10:17.220Z,931.8
2017-08-08T01:10:45.386Z,931.81
2017-08-08T01:11:13.629Z,931.83
2017-08-08T01:11:41.899Z,931.8
2017-08-08T01:12:10.258Z,931.82
2017-08-08T01:12:38.710Z,931.83
2017-08-08T01:13:07.049Z,931.81
2017-08-08T01:13:35.500Z,931.8
2017-08-08T01:14:03.886Z,931.81
2017-08-08T01:14:32.106Z,931.84
2017-08-08T01:15:00.626Z,931.84
2017-08-08T01:15:29.027Z,931.84
2017-08-08T01:15:57.385Z,931.83
2017-08-08T01:16:25.572Z,931.81
2017-08-08T01:16:53.895Z,931.8
2017-08-08T01:17:22.163Z,931.81
2017-08-08T01:17:50.605Z,931.8
2017-08-08T01:18:19.037Z,931.76
2017-08-08T01:18:47.258Z,931.73
2017-08-08T01:19:15.638Z,931.75
2017-08-08T01:19:43.919Z,931.7
2017-08-08T01:20:12.282Z,931.71
2017-08-08T01:20:40.648Z,931.73
2017-08-08T01:21:08.753Z,931.76
2017-08-08T01:21:37.021Z,931.74
2017-08-08T01:22:05.411Z,931.72
2017-08-08T01:22:33.656Z,931.72
2017-08-08T01:23:01.998Z,931.73
2017-08-08T01:23:30.276Z,931.76
2017-08-08T01:23:58.689Z,931.75
2017-08-08T01:24:26.908Z,931.77
2017-08-08T01:24:54.999Z,931.78
2017-08-08T01:25:23.409Z,931.76
2017-08-08T01:25:51.703Z,931.77
2017-08-08T01:26:20.000Z,931.7
2017-08-08T01:26:48.389Z,931.72
2017-08-08T01:27:16.620Z,931.7
2017-08-08T01:27:44.801Z,931.69
2017-08-08T01:28:13.152Z,931.68
2017-08-08T01:28:41.303Z,931.7
2017-08-08T01:29:09.411Z,931.72
2017-08-08T01:29:37.759Z,931.73
2017-08-08T01:30:06.127Z,931.71
2017-08-08T01:30:34.354Z,931.7
2017-08-08T01:31:02.462Z,931.69
2017-08-08T01:31:30.861Z,931.71
2017-08-08T01:31:59.227Z,931.71
2017-08-08T01:32:27.879Z,931.71
2017-08-08T01:32:56.900Z,931.68
2017-08-08T01:33:25.192Z,931.64
2017-08-08T01:33:53.423Z,931.66
2017-08-08T01:34:21.856Z,931.61
2017-08-08T01:34:50.167Z,931.6
2017-08-08T01:35:18.554Z,931.54
2017-08-08T01:35:46.820Z,931.56
2017-08-08T01:36:15.068Z,931.54
2017-08-08T01:36:43.374Z,931.53
2017-08-08T01:37:11.815Z,931.55
2017-08-08T01:37:40.162Z,931.53
2017-08-08T01:38:08.423Z,931.51
2017-08-08T01:38:36.701Z,931.51
2017-08-08T01:39:05.105Z,931.52
2017-08-08T01:39:33.502Z,931.54
2017-08-08T01:40:01.727Z,931.53
2017-08-08T01:40:30.012Z,931.57
2017-08-08T01:40:58.266Z,931.57
2017-08-08T01:41:26.692Z,931.59
2017-08-08T01:41:54.909Z,931.6
2017-08-08T01:42:23.242Z,931.57
2017-08-08T01:42:51.481Z,931.56
2017-08-08T01:43:19.885Z,931.55
2017-08-08T01:43:48.059Z,931.56
2017-08-08T01:44:16.260Z,931.54
2017-08-08T01:44:44.426Z,931.58
2017-08-08T01:45:12.736Z,931.54
2017-08-08T01:45:41.179Z,931.52
2017-08-08T01:46:09.413Z,931.53
2017-08-08T01:46:37.836Z,931.5
2017-08-08T01:47:06.156Z,931.56
2017-08-08T01:47:34.484Z,931.52
2017-08-08T01:48:02.717Z,931.51
2017-08-08T01:48:31.105Z,931.54
2017-08-08T01:48:59.248Z,931.53
2017-08-08T01:49:27.614Z,931.49
2017-08-08T01:49:55.958Z,931.5
2017-08-08T01:50:24.357Z,931.53
2017-08-08T01:50:52.761Z,931.48
2017-08-08T01:51:21.018Z,931.52
2017-08-08T01:51:49.202Z,931.52
2017-08-08T01:52:17.467Z,931.51
2017-08-08T01:52:45.723Z,931.53
2017-08-08T01:53:14.017Z,931.52
2017-08-08T01:53:42.365Z,931.54
2017-08-08T01:54:10.663Z,931.53
2017-08-08T01:54:38.878Z,931.55
2017-08-08T01:55:07.300Z,931.54
2017-08-08T01:55:35.564Z,931.54
2017-08-08T01:56:03.802Z,931.54
2017-08-08T01:56:32.157Z,931.54
2017-08-08T01:57:00.594Z,931.57
2017-08-08T01:57:28.858Z,931.54
2017-08-08T01:57:57.173Z,931.56
2017-08-08T01:58:25.330Z,931.55
2017-08-08T01:58:53.616Z,931.55
2017-08-08T01:59:21.914Z,931.54
2017-08-08T01:59:50.240Z,931.57
2017-08-08T02:00:18.383Z,931.55
2017-08-08T02:00:46.854Z,931.51
2017-08-08T02:01:15.199Z,931.53
2017-08-08T02:01:43.438Z,931.48
2017-08-08T02:02:11.530Z,931.48
2017-08-08T02:02:39.782Z,931.43
2017-08-08T02:03:08.097Z,931.45
2017-08-08T02:03:36.170Z,931.45
2017-08-08T02:04:04.450Z,931.4
2017-08-08T02:04:32.492Z,931.4
2017-08-08T02:05:00.642Z,931.42
2017-08-08T02:05:28.869Z,931.41
2017-08-08T02:05:57.168Z,931.4
2017-08-08T02:06:25.455Z,931.42
2017-08-08T02:06:53.737Z,931.45
2017-08-08T02:07:21.853Z,931.45
2017-08-08T02:07:50.155Z,931.44
2017-08-08T02:08:18.373Z,931.45
2017-08-08T02:08:46.639Z,931.46
2017-08-08T02:09:14.915Z,931.44
2017-08-08T02:09:43.273Z,931.46
2017-08-08T02:10:11.587Z,931.48
2017-08-08T02:10:39.792Z,931.47
2017-08-08T02:11:08.160Z,931.49
2017-08-08T02:11:36.267Z,931.52
2017-08-08T02:12:04.579Z,931.52
2017-08-08T02:12:32.821Z,931.54
2017-08-08T02:13:01.046Z,931.53
2017-08-08T02:13:29.334Z,931.51
2017-08-08T02:13:57.605Z,931.48
2017-08-08T02:14:25.854Z,931.44
2017-08-08T02:14:53.877Z,931.38
2017-08-08T02:15:22.098Z,931.39
2017-08-08T02:15:50.361Z,931.36
2017-08-08T02:16:18.547Z,931.38
2017-08-08T02:16:47.626Z,931.39
2017-08-08T02:17:15.742Z,931.35
2017-08-08T02:17:44.012Z,931.34
2017-08-08T02:18:12.163Z,931.31
2017-08-08T02:18:40.467Z,931.31
2017-08-08T02:19:08.656Z,931.3
2017-08-08T02:19:36.831Z,931.3
2017-08-08T02:20:04.816Z,931.34
2017-08-08T02:20:33.127Z,931.35
2017-08-08T02:21:01.284Z,931.36
2017-08-08T02:21:29.422Z,931.32
2017-08-08T02:21:57.555Z,931.38
2017-08-08T02:22:25.768Z,931.39
2017-08-08T02:22:53.947Z,931.38
2017-08-08T02:23:22.232Z,931.39
2017-08-08T02:23:50.420Z,931.38
2017-08-08T02:24:18.673Z,931.4
2017-08-08T02:24:46.815Z,931.38
2017-08-08T02:25:15.098Z,931.4
2017-08-08T02:25:43.203Z,931.35
2017-08-08T02:26:11.596Z,931.29
2017-08-08T02:26:39.804Z,931.34
2017-08-08T02:27:08.084Z,931.36
2017-08-08T02:27:36.312Z,931.35
2017-08-08T02:28:04.531Z,931.4
2017-08-08T02:28:32.800Z,931.4
2017-08-08T02:29:01.049Z,931.41
2017-08-08T02:29:29.375Z,931.45
2017-08-08T02:29:57.637Z,931.42
2017-08-08T02:30:25.823Z,931.44
2017-08-08T02:30:54.023Z,931.42
2017-08-08T02:31:22.397Z,931.43
2017-08-08T02:31:50.551Z,931.38
2017-08-08T02:32:18.726Z,931.4
2017-08-08T02:32:46.980Z,931.34
2017-08-08T02:33:15.161Z,931.35
2017-08-08T02:33:43.391Z,931.32
2017-08-08T02:34:11.510Z,931.3
2017-08-08T02:34:39.776Z,931.33
2017-08-08T02:35:08.072Z,931.32
2017-08-08T02:35:36.346Z,931.34
2017-08-08T02:36:04.417Z,931.34
2017-08-08T02:36:32.674Z,931.35
2017-08-08T02:37:00.966Z,931.36
2017-08-08T02:37:29.211Z,931.35
2017-08-08T02:37:57.470Z,931.34
2017-08-08T02:38:25.728Z,931.37
2017-08-08T02:38:53.788Z,931.38
2017-08-08T02:39:22.029Z,931.34
2017-08-08T02:39:50.258Z,931.34
2017-08-08T02:40:18.508Z,931.31
2017-08-08T02:40:46.656Z,931.31
2017-08-08T02:41:14.944Z,931.33
2017-08-08T02:41:43.123Z,931.29
2017-08-08T02:42:11.106Z,931.3
2017-08-08T02:42:39.071Z,931.3
2017-08-08T02:43:07.364Z,931.32
2017-08-08T02:43:35.565Z,931.3
2017-08-08T02:44:03.833Z,931.3
2017-08-08T02:44:32.019Z,931.26
2017-08-08T02:45:00.347Z,931.26
2017-08-08T02:45:28.702Z,931.26
2017-08-08T02:45:56.898Z,931.29
2017-08-08T02:46:25.157Z,931.27
2017-08-08T02:46:53.227Z,931.3
2017-08-08T02:47:21.500Z,931.27
2017-08-08T02:47:49.439Z,931.28
2017-08-08T02:48:17.574Z,931.26
2017-08-08T02:48:45.819Z,931.31
2017-08-08T02:49:13.889Z,931.28
2017-08-08T02:49:42.044Z,931.3
2017-08-08T02:50:10.184Z,931.28
2017-08-08T02:50:38.513Z,931.3
2017-08-08T02:51:06.815Z,931.33
2017-08-08T02:51:35.177Z,931.31
2017-08-08T02:52:03.305Z,931.32
2017-08-08T02:52:31.391Z,931.31
2017-08-08T02:52:59.531Z,931.27
2017-08-08T02:53:27.685Z,931.29
2017-08-08T02:53:55.909Z,931.29
2017-08-08T02:54:24.168Z,931.27
2017-08-08T02:54:52.438Z,931.28
2017-08-08T02:55:20.598Z,931.29
2017-08-08T02:55:48.763Z,931.29
2017-08-08T02:56:16.957Z,931.29
2017-08-08T02:56:45.198Z,931.28
2017-08-08T02:57:13.391Z,931.31
2017-08-08T02:57:41.525Z,931.32
2017-08-08T02:58:09.656Z,931.32
2017-08-08T02:58:37.781Z,931.31
2017-08-08T02:59:05.960Z,931.3
2017-08-08T02:59:34.181Z,931.34
2017-08-08T03:00:02.370Z,931.31
2017-08-08T03:00:30.443Z,931.33
2017-08-08T03:00:58.682Z,931.32
2017-08-08T03:01:26.916Z,931.28
2017-08-08T03:01:55.297Z,931.3
2017-08-08T03:02:23.441Z,931.31
2017-08-08T03:02:51.727Z,931.3
2017-08-08T03:03:20.023Z,931.32
2017-08-08T03:03:48.198Z,931.34
2017-08-08T03:04:16.294Z,931.35
2017-08-08T03:04:44.436Z,931.35
2017-08-08T03:05:12.686Z,931.37
2017-08-08T03:05:40.946Z,931.33
2017-08-08T03:06:09.069Z,931.3
2017-08-08T03:06:37.254Z,931.3
2017-08-08T03:07:05.623Z,931.3
2017-08-08T03:07:33.773Z,931.28
2017-08-08T03:08:02.024Z,931.27
2017-08-08T03:08:30.309Z,931.31
2017-08-08T03:08:58.470Z,931.32
2017-08-08T03:09:26.739Z,931.34
2017-08-08T03:09:54.940Z,931.36
2017-08-08T03:10:23.234Z,931.34
2017-08-08T03:10:51.453Z,931.3
2017-08-08T03:11:19.696Z,931.29
2017-08-08T03:11:47.939Z,931.27
2017-08-08T03:12:16.118Z,931.27
2017-08-08T03:12:44.238Z,931.28
2017-08-08T03:13:12.227Z,931.3
2017-08-08T03:13:40.516Z,931.27
2017-08-08T03:14:08.545Z,931.27
2017-08-08T03:14:36.684Z,931.28
2017-08-08T03:15:04.896Z,931.28
2017-08-08T03:15:33.112Z,931.31
2017-08-08T03:16:01.199Z,931.33
2017-08-08T03:16:29.360Z,931.33
2017-08-08T03:16:57.608Z,931.33
2017-08-08T03:17:25.911Z,931.29
2017-08-08T03:17:54.058Z,931.32
2017-08-08T03:18:22.199Z,931.32
2017-08-08T03:18:50.393Z,931.33
2017-08-08T03:19:18.568Z,931.32
2017-08-08T03:19:46.758Z,931.32
2017-08-08T03:20:15.013Z,931.35
2017-08-08T03:20:43.165Z,931.29
2017-08-08T03:21:11.426Z,931.29
2017-08-08T03:21:39.695Z,931.27
2017-08-08T03:22:08.043Z,931.31
2017-08-08T03:22:36.541Z,931.31
2017-08-08T03:23:04.589Z,931.29
2017-08-08T03:23:32.715Z,931.29
2017-08-08T03:24:00.988Z,931.28
2017-08-08T03:24:29.112Z,931.3
2017-08-08T03:24:57.156Z,931.29
2017-08-08T03:25:25.399Z,931.28
2017-08-08T03:25:53.595Z,931.26
2017-08-08T03:26:21.650Z,931.25
2017-08-08T03:26:49.808Z,931.28
2017-08-08T03:27:17.971Z,931.21
2017-08-08T03:27:45.994Z,931.26
2017-08-08T03:28:14.196Z,931.25
2017-08-08T03:28:42.433Z,931.25
2017-08-08T03:29:10.483Z,931.25
2017-08-08T03:29:38.529Z,931.25
2017-08-08T03:30:06.764Z,931.26
2017-08-08T03:30:34.898Z,931.26
2017-08-08T03:31:03.171Z,931.28
2017-08-08T03:31:31.258Z,931.29
2017-08-08T03:31:59.513Z,931.28
2017-08-08T03:32:27.836Z,931.29
2017-08-08T03:32:55.862Z,931.27
2017-08-08T03:33:24.156Z,931.24
2017-08-08T03:33:52.424Z,931.23
2017-08-08T03:34:20.379Z,931.17
2017-08-08T03:34:48.703Z,931.17
2017-08-08T03:35:16.901Z,931.16
2017-08-08T03:35:45.058Z,931.16
2017-08-08T03:36:13.169Z,931.16
2017-08-08T03:36:41.433Z,931.13
2017-08-08T03:37:09.485Z,931.13
2017-08-08T03:37:37.700Z,931.14
2017-08-08T03:38:05.941Z,931.12
2017-08-08T03:38:34.131Z,931.15
2017-08-08T03:39:02.222Z,931.15
2017-08-08T03:39:30.187Z,931.12
2017-08-08T03:39:58.418Z,931.12
2017-08-08T03:40:26.440Z,931.14
2017-08-08T03:40:54.610Z,931.11
2017-08-08T03:41:22.729Z,931.12
2017-08-08T03:41:50.958Z,931.12
2017-08-08T03:42:19.169Z,931.11
2017-08-08T03:42:47.346Z,931.12
2017-08-08T03:43:15.458Z,931.15
2017-08-08T03:43:43.705Z,931.21
2017-08-08T03:44:11.930Z,931.19
2017-08-08T03:44:40.158Z,931.19
2017-08-08T03:45:08.305Z,931.22
2017-08-08T03:45:36.448Z,931.22
2017-08-08T03:46:04.617Z,931.2
2017-08-08T03:46:32.742Z,931.19
2017-08-08T03:47:00.985Z,931.19
2017-08-08T03:47:29.256Z,931.19
2017-08-08T03:47:57.415Z,931.15
2017-08-08T03:48:25.681Z,931.14
2017-08-08T03:48:53.922Z,931.11
2017-08-08T03:49:22.125Z,931.13
2017-08-08T03:49:50.268Z,931.06
2017-08-08T03:50:18.388Z,931.07
2017-08-08T03:50:46.542Z,931.08
2017-08-08T03:51:14.803Z,931.1
2017-08-08T03:51:42.845Z,931.15
2017-08-08T03:52:11.035Z,931.12
2017-08-08T03:52:39.201Z,931.15
2017-08-08T03:53:07.369Z,931.13
2017-08-08T03:53:35.516Z,931.14
2017-08-08T03:54:03.691Z,931.13
2017-08-08T03:54:31.870Z,931.15
2017-08-08T03:55:00.023Z,931.14
2017-08-08T03:55:28.267Z,931.11
2017-08-08T03:55:56.433Z,931.1
2017-08-08T03:56:24.673Z,931.12
2017-08-08T03:56:52.943Z,931.08
2017-08-08T03:57:21.204Z,931.08
2017-08-08T03:57:49.314Z,931.05
2017-08-08T03:58:17.601Z,931.06
2017-08-08T03:58:45.853Z,931.04
2017-08-08T03:59:14.111Z,931.03
2017-08-08T03:59:42.221Z,931.01
2017-08-08T04:00:10.362Z,931.01
2017-08-08T04:00:38.613Z,931.01
2017-08-08T04:01:06.722Z,930.94
2017-08-08T04:01:34.980Z,930.96
2017-08-08T04:02:03.189Z,930.93
2017-08-08T04:02:31.544Z,930.94
2017-08-08T04:02:59.863Z,930.92
2017-08-08T04:03:28.026Z,930.91
2017-08-08T04:03:56.278Z,930.9
2017-08-08T04:04:24.533Z,930.9
2017-08-08T04:04:52.564Z,930.9
2017-08-08T04:05:20.579Z,930.87
2017-08-08T04:05:48.797Z,930.89
2017-08-08T04:06:16.931Z,930.89
2017-08-08T04:06:45.142Z,930.88
2017-08-08T04:07:13.406Z,930.9
2017-08-08T04:07:41.682Z,930.89
2017-08-08T04:08:09.960Z,930.94
2017-08-08T04:08:38.225Z,930.89
2017-08-08T04:09:06.394Z,930.89
2017-08-08T04:09:34.539Z,930.88
2017-08-08T04:10:02.633Z,930.86
2017-08-08T04:10:30.651Z,930.85
2017-08-08T04:10:58.862Z,930.84
2017-08-08T04:11:26.995Z,930.79
2017-08-08T04:11:55.054Z,930.77
2017-08-08T04:12:23.043Z,930.75
2017-08-08T04:12:51.186Z,930.78
2017-08-08T04:13:19.240Z,930.79
2017-08-08T04:13:47.382Z,930.78
2017-08-08T04:14:15.631Z,930.79
2017-08-08T04:14:43.706Z,930.77
2017-08-08T04:15:11.969Z,930.75
2017-08-08T04:15:40.123Z,930.77
2017-08-08T04:16:08.269Z,930.75
2017-08-08T04:16:36.324Z,930.74
2017-08-08T04:17:04.305Z,930.73
2017-08-08T04:17:32.358Z,930.73
2017-08-08T04:18:00.582Z,930.76
2017-08-08T04:18:28.741Z,930.78
2017-08-08T04:18:56.986Z,930.76
2017-08-08T04:19:25.241Z,930.78
2017-08-08T04:19:53.191Z,930.82
2017-08-08T04:20:21.462Z,930.8
2017-08-08T04:20:49.731Z,930.76
2017-08-08T04:21:17.832Z,930.74
2017-08-08T04:21:46.060Z,930.76
2017-08-08T04:22:14.204Z,930.78
2017-08-08T04:22:42.505Z,930.78
2017-08-08T04:23:10.718Z,930.78
2017-08-08T04:23:38.863Z,930.79
2017-08-08T04:24:06.993Z,930.79
2017-08-08T04:24:35.036Z,930.78
2017-08-08T04:25:03.151Z,930.77
2017-08-08T04:25:31.402Z,930.8
2017-08-08T04:25:59.561Z,930.79
2017-08-08T04:26:27.813Z,930.76
2017-08-08T04:26:55.859Z,930.76
2017-08-08T04:27:24.027Z,930.76
2017-08-08T04:27:52.300Z,930.74
2017-08-08T04:28:20.571Z,930.75
2017-08-08T04:28:48.856Z,930.73
2017-08-08T04:29:16.974Z,930.73
2017-08-08T04:29:45.190Z,930.71
2017-08-08T04:30:13.367Z,930.7
2017-08-08T04:30:41.572Z,930.73
2017-08-08T04:31:09.767Z,930.72
2017-08-08T04:31:38.033Z,930.74
2017-08-08T04:32:06.260Z,930.73
2017-08-08T04:32:34.380Z,930.75
2017-08-08T04:33:02.629Z,930.74
2017-08-08T04:33:30.745Z,930.74
2017-08-08T04:33:58.952Z,930.76
2017-08-08T04:34:27.082Z,930.81
2017-08-08T04:34:55.229Z,930.79
2017-08-08T04:35:23.506Z,930.83
2017-08-08T04:35:51.653Z,930.85
2017-08-08T04:36:19.917Z,930.84
2017-08-08T04:36:48.102Z,930.84
2017-08-08T04:37:16.406Z,930.82
2017-08-08T04:37:44.639Z,930.82
2017-08-08T04:38:12.933Z,930.82
2017-08-08T04:38:41.167Z,930.77
2017-08-08T04:39:09.280Z,930.78
2017-08-08T04:39:37.541Z,930.77
2017-08-08T04:40:05.747Z,930.74
2017-08-08T04:40:33.929Z,930.73
2017-08-08T04:41:02.172Z,930.68
2017-08-08T04:41:30.426Z,930.68
2017-08-08T04:41:58.640Z,930.67
2017-08-08T04:42:26.666Z,930.67
2017-08-08T04:42:54.714Z,930.64
2017-08-08T04:43:22.969Z,930.64
2017-08-08T04:43:51.149Z,930.58
2017-08-08T04:44:19.249Z,930.61
2017-08-08T04:44:47.496Z,930.59
2017-08-08T04:45:15.644Z,930.61
2017-08-08T04:45:43.903Z,930.58
2017-08-08T04:46:12.173Z,930.58
2017-08-08T04:46:40.427Z,930.59
2017-08-08T04:47:08.670Z,930.62
2017-08-08T04:47:36.831Z,930.61
2017-08-08T04:48:04.918Z,930.62
2017-08-08T04:48:33.163Z,930.62
2017-08-08T04:49:01.420Z,930.65
2017-08-08T04:49:29.689Z,930.62
2017-08-08T04:49:57.898Z,930.61
2017-08-08T04:50:26.161Z,930.61
2017-08-08T04:50:54.294Z,930.58
2017-08-08T04:51:22.421Z,930.61
2017-08-08T04:51:50.685Z,930.61
2017-08-08T04:52:18.634Z,930.67
2017-08-08T04:52:46.802Z,930.7
2017-08-08T04:53:15.064Z,930.71
2017-08-08T04:53:43.268Z,930.74
2017-08-08T04:54:11.515Z,930.77
2017-08-08T04:54:39.658Z,930.75
2017-08-08T04:55:07.873Z,930.75
2017-08-08T04:55:35.958Z,930.73
2017-08-08T04:56:04.284Z,930.7
2017-08-08T04:56:32.576Z,930.63
2017-08-08T04:57:00.625Z,930.64
2017-08-08T04:57:28.809Z,930.6
2017-08-08T04:57:57.045Z,930.59
2017-08-08T04:58:25.048Z,930.58
2017-08-08T04:58:53.257Z,930.62
2017-08-08T04:59:21.376Z,930.65
2017-08-08T04:59:49.665Z,930.69
2017-08-08T05:00:17.726Z,930.69
2017-08-08T05:00:46.012Z,930.69
2017-08-08T05:01:14.148Z,930.69
2017-08-08T05:01:42.211Z,930.7
2017-08-08T05:02:10.341Z,930.67
2017-08-08T05:02:38.385Z,930.64
2017-08-08T05:03:06.561Z,930.63
2017-08-08T05:03:34.830Z,930.6
2017-08-08T05:04:03.098Z,930.57
2017-08-08T05:04:31.311Z,930.51
2017-08-08T05:04:59.494Z,930.52
2017-08-08T05:05:27.633Z,930.47
2017-08-08T05:05:55.685Z,930.46
2017-08-08T05:06:23.761Z,930.46
2017-08-08T05:06:52.035Z,930.46
2017-08-08T05:07:20.047Z,930.48
2017-08-08T05:07:48.259Z,930.48
2017-08-08T05:08:16.253Z,930.53
2017-08-08T05:08:44.491Z,930.53
2017-08-08T05:09:12.654Z,930.49
2017-08-08T05:09:40.828Z,930.57
2017-08-08T05:10:09.070Z,930.58
2017-08-08T05:10:37.028Z,930.61
2017-08-08T05:11:05.193Z,930.58
2017-08-08T05:11:33.438Z,930.64
2017-08-08T05:12:01.700Z,930.66
2017-08-08T05:12:29.973Z,930.67
2017-08-08T05:12:58.135Z,930.66
2017-08-08T05:13:26.410Z,930.64
2017-08-08T05:13:54.634Z,930.67
2017-08-08T05:14:22.814Z,930.65
2017-08-08T05:14:51.045Z,930.63
2017-08-08T05:15:19.187Z,930.66
2017-08-08T05:15:47.424Z,930.66
2017-08-08T05:16:15.673Z,930.67
2017-08-08T05:16:43.826Z,930.65
2017-08-08T05:17:12.047Z,930.64
2017-08-08T05:17:40.206Z,930.6
2017-08-08T05:18:08.332Z,930.62
2017-08-08T05:18:36.460Z,930.61
2017-08-08T05:19:04.622Z,930.6
2017-08-08T05:19:32.831Z,930.6
2017-08-08T05:20:01.102Z,930.61
2017-08-08T05:20:29.327Z,930.58
2017-08-08T05:20:57.429Z,930.6
2017-08-08T05:21:25.679Z,930.57
2017-08-08T05:21:53.843Z,930.55
2017-08-08T05:22:21.968Z,930.53
2017-08-08T05:22:50.141Z,930.57
2017-08-08T05:23:18.390Z,930.55
2017-08-08T05:23:46.591Z,930.54
2017-08-08T05:24:14.817Z,930.53
2017-08-08T05:24:42.960Z,930.51
2017-08-08T05:25:11.227Z,930.54
2017-08-08T05:25:39.377Z,930.54
2017-08-08T05:26:07.642Z,930.49
2017-08-08T05:26:35.878Z,930.47
2017-08-08T05:27:04.150Z,930.48
2017-08-08T05:27:32.296Z,930.5
2017-08-08T05:28:00.579Z,930.48
2017-08-08T05:28:28.559Z,930.45
2017-08-08T05:28:56.959Z,930.54
2017-08-08T05:29:25.017Z,930.52
2017-08-08T05:29:53.084Z,930.49
2017-08-08T05:30:21.244Z,930.53
2017-08-08T05:30:49.391Z,930.54
2017-08-08T05:31:17.513Z,930.54
2017-08-08T05:31:45.688Z,930.51
2017-08-08T05:32:13.833Z,930.53
2017-08-08T05:32:41.945Z,930.51
2017-08-08T05:33:10.152Z,930.54
2017-08-08T05:33:38.379Z,930.52
2017-08-08T05:34:06.682Z,930.54
2017-08-08T05:34:34.946Z,930.51
2017-08-08T05:35:03.202Z,930.51
2017-08-08T05:35:31.479Z,930.51
2017-08-08T05:35:59.505Z,930.51
2017-08-08T05:36:27.754Z,930.5
2017-08-08T05:36:55.801Z,930.46
2017-08-08T05:37:24.008Z,930.45
2017-08-08T05:37:52.119Z,930.44
2017-08-08T05:38:20.160Z,930.44
2017-08-08T05:38:48.443Z,930.43
2017-08-08T05:39:16.750Z,930.43
2017-08-08T05:39:45.014Z,930.41
2017-08-08T05:40:12.970Z,930.4
2017-08-08T05:40:41.087Z,930.38
2017-08-08T05:41:09.291Z,930.36
2017-08-08T05:41:37.591Z,930.36
2017-08-08T05:42:05.852Z,930.37
2017-08-08T05:42:34.059Z,930.39
2017-08-08T05:43:02.358Z,930.36
2017-08-08T05:43:30.577Z,930.39
2017-08-08T05:43:58.851Z,930.37
2017-08-08T05:44:27.071Z,930.39
2017-08-08T05:44:55.244Z,930.35
2017-08-08T05:45:23.373Z,930.39
2017-08-08T05:45:51.528Z,930.33
2017-08-08T05:46:19.675Z,930.36
2017-08-08T05:46:47.799Z,930.34
2017-08-08T05:47:16.052Z,930.35
2017-08-08T05:47:44.206Z,930.32
2017-08-08T05:48:12.257Z,930.34
2017-08-08T05:48:40.500Z,930.32
2017-08-08T05:49:08.865Z,930.35
2017-08-08T05:49:37.021Z,930.29
2017-08-08T05:50:05.066Z,930.28
2017-08-08T05:50:33.228Z,930.26
2017-08-08T05:51:01.366Z,930.25
2017-08-08T05:51:29.523Z,930.22
2017-08-08T05:51:57.710Z,930.25
2017-08-08T05:52:25.834Z,930.23
2017-08-08T05:52:53.768Z,930.27
2017-08-08T05:53:21.883Z,930.27
2017-08-08T05:53:50.023Z,930.24